Kirkville, IA

10:54 CDT le 30 octobre 2014 (GMT -0500)
Ottumwa Industrial | Change Station
CLOSE
Current Station
Aéroport
Location: Ottumwa,
Altitude: 843 ft
Stations météo à proximité

Alt. 843 ft 41.11 °N, 92.45 °W | Updated 1 hour ago

Nuageux
Nuageux
45 ° F
Paraît 41 ° F
N
8
Vent Variable Vent de Est

Aujourd'hui
Haut(e) -- | Bas -- ° F
--% Risque de précip.
Hier
Haut(e) -- | Bas -- ° F
Precip. -- pouce
7:38 AM 6:07 PM
Lune montante, 45% visible
Pression 30.06 pouce
Visibilité 10.0 Miles terrestres
Nuages Nuageux 12000 ft
Refroidissement éolien 41 ° F
Point de rosée 38 ° F
Humidité 76%
Précipitations 0.00 pouce
Profondeur de la couche neigeuse Non disponible.
UV 1 sur 12
Pollen .80 sur 12
Qualité de l'air Non disponible.
Flu Activity Non disponible.
METAR KOTM 301453Z AUTO 10007KT 10SM BKN120 07/03 A3004 RMK AO2 SLP180 T00720033 58005

More Conditions Fewer Conditions

Pression 30.06 pouce
Visibilité 10.0 Miles terrestres
Nuages Nuageux 12000 ft
Refroidissement éolien 41 ° F
Point de rosée 38 ° F
Humidité 76%
Précipitations 0.00 pouce
Profondeur de la couche neigeuse Non disponible.
UV 1 sur 12
Pollen .80 sur 12
Qualité de l'air Non disponible.
Flu Activity Non disponible.
METAR KOTM 301453Z AUTO 10007KT 10SM BKN120 07/03 A3004 RMK AO2 SLP180 T00720033 58005

More Conditions Fewer Conditions

10-Day Weather Forecast

Almanac

Astronomie

Oct. 30, 2014 Lever Coucher
Temps réel
Crépuscule civil
Crépuscule nautique
Crépuscule astronomique
Lune
Durée de lumière visible
Longueur du jour
Tomorrow will be .
, % of the Moon is Illuminated

Extrêmes aujourd'hui

State Highs State Lows

Community

WunderPhotos

Upload Photos

1,766,389 Photos téléchargées !

WunderBlogs® & News

Nearby

Qualité de l'air

  Qualité de l'air Indice de la qualité de l'air Polluant
Not available.

Épaisseur de neige

Station Depth Altitude

Activité sismique

Ville Distance Mag. Time & Date
Minimum magnitude displayed is 2.5.

Températures des eaux côtières

Lieu Température

Stations météo à proximité